Flugplatz Hoppstädten-Weiersbach

Für EDRH sind keine METAR/TAF Berichte vorhanden.
Es werden die Flugwettermeldungen vom Flugplatz Ramstein Air Base in 35 km Entfernung angezeigt.

Bericht für ETAR

vom 28.10. um 07:38 UTC

Wind 8 kt aus 230°

Sichtweite 10 km oder mehr

aufgebrochene Bewölkung in 1700 ft

bedeckt in 6500 ft

Temperatur 11.0°C

Taupunkt 11.0°C

Luftfeuchtigkeit 100%

Luftdruck 1011 hPa

ETAR 280738Z 23008KT 9999 BKN017 OVC065 11/11 A2986 RMK AO2A SHRAE0656RAB0656E08 CIG 014 RWY08 SLP117 FZRANO $

Prognose für ETAR

vom 28.10. um 02:00 UTC

Zwischen 02:00 UTC und 10:00 UTC

Wind 10 kt aus 220° in Böen 20 kt

Sichtweite 10 km oder mehr

aufgelockert bewölkt in 1000 ft

aufgebrochene Bewölkung in 1500 ft


Zwischen 05:00 UTC und 10:00 UTC zeitweise

Sichtweite 8000 m

schwacher Regenschauer

aufgebrochene Bewölkung in 1000 ft


Zwischen 10:00 und 11:00 UTC übergehend zu

Wind 15 kt aus 220° in Böen 25 kt

Sichtweite 10 km oder mehr

aufgelockert bewölkt in 2000 ft


Zwischen 19:00 und 20:00 UTC übergehend zu

Wind 15 kt aus 210° in Böen 30 kt

Sichtweite 8000 m

schwacher Regenschauer

aufgebrochene Bewölkung in 1500 ft

bedeckt in 2500 ft

TAF ETAR 280200Z 2802/2908 22010G20KT 9999 SCT010 BKN015 620703 520004 QNH2978INS TEMPO 2805/2810 8000 -SHRA BKN010 BECMG 2810/2811 22015G25KT 9999 SCT020 520004 QNH2988INS BECMG 2819/2820 21015G30KT 8000 -SHRA BKN015 OVC025 620505 520004 QNH2990INS TX12/2814Z TN10/2802Z
Impressum